createdAt,value
2018-08-25T00:00:54.928Z,74.32
2018-08-25T00:01:54.908Z,74.13
2018-08-25T00:02:54.884Z,73.94
2018-08-25T00:03:54.855Z,73.94
2018-08-25T00:04:54.994Z,73.36
2018-08-25T00:05:54.801Z,73.21
2018-08-25T00:06:54.831Z,73.08
2018-08-25T00:07:54.758Z,73.11
2018-08-25T00:08:54.747Z,72.92
2018-08-25T00:09:54.754Z,72.16
2018-08-25T00:10:54.715Z,72.83
2018-08-25T00:11:54.664Z,72.16
2018-08-25T00:12:54.660Z,72.44
2018-08-25T00:13:54.609Z,72.06
2018-08-25T00:14:54.603Z,72.34
2018-08-25T00:16:40.935Z,71.87
2018-08-25T00:17:40.931Z,71.30
2018-08-25T00:18:40.859Z,71.58
2018-08-25T00:19:40.844Z,71.58
2018-08-25T00:20:40.831Z,71.48
2018-08-25T00:21:40.797Z,71.68
2018-08-25T00:22:40.766Z,71.11
2018-08-25T00:23:40.740Z,71.30
2018-08-25T00:24:40.729Z,71.97
2018-08-25T00:25:40.695Z,71.97
2018-08-25T00:26:40.665Z,71.68
2018-08-25T00:27:40.644Z,71.58
2018-08-25T00:28:40.615Z,71.11
2018-08-25T00:29:40.601Z,71.68
2018-08-25T00:30:40.572Z,71.97
2018-08-25T00:31:40.544Z,71.87
2018-08-25T00:32:40.518Z,71.58
2018-08-25T00:33:40.529Z,71.68
2018-08-25T00:34:40.488Z,71.39
2018-08-25T00:35:40.455Z,71.77
2018-08-25T00:36:40.429Z,71.48
2018-08-25T00:37:40.403Z,71.39
2018-08-25T00:38:40.375Z,71.77
2018-08-25T00:39:40.360Z,72.16
2018-08-25T00:40:40.356Z,72.06
2018-08-25T00:41:40.317Z,71.77
2018-08-25T00:42:40.294Z,71.77
2018-08-25T00:43:40.255Z,71.68
2018-08-25T00:44:40.237Z,71.01
2018-08-25T00:45:40.227Z,71.48
2018-08-25T00:46:40.181Z,71.48
2018-08-25T00:47:40.231Z,71.48
2018-08-25T00:48:40.147Z,71.87
2018-08-25T00:50:27.028Z,72.54
2018-08-25T00:51:26.967Z,72.34
2018-08-25T00:52:26.944Z,72.06
2018-08-25T00:53:26.918Z,72.16
2018-08-25T00:54:26.901Z,72.16
2018-08-25T00:55:26.896Z,72.83
2018-08-25T00:56:26.875Z,72.34
2018-08-25T00:57:26.825Z,72.50
2018-08-25T00:58:26.826Z,72.41
2018-08-25T00:59:26.783Z,72.79
2018-08-25T01:00:26.749Z,72.73
2018-08-25T01:01:26.757Z,72.79
2018-08-25T01:02:26.697Z,72.98
2018-08-25T01:03:26.709Z,72.79
2018-08-25T01:04:26.657Z,73.36
2018-08-25T01:05:26.723Z,73.27
2018-08-25T01:06:26.602Z,73.46
2018-08-25T01:07:26.594Z,73.36
2018-08-25T01:08:26.562Z,73.27
2018-08-25T01:09:26.552Z,73.75
2018-08-25T01:10:26.532Z,73.55
2018-08-25T01:11:26.482Z,74.22
2018-08-25T01:12:26.461Z,73.94
2018-08-25T01:13:26.463Z,74.32
2018-08-25T01:14:26.420Z,74.13
2018-08-25T01:15:26.389Z,74.13
2018-08-25T01:16:26.362Z,74.90
2018-08-25T01:17:26.340Z,74.70
2018-08-25T01:18:26.316Z,75.47
2018-08-25T01:19:26.294Z,75.66
2018-08-25T01:20:26.274Z,76.14
2018-08-25T01:21:26.249Z,76.10
2018-08-25T01:22:26.224Z,76.42
2018-08-25T01:23:26.212Z,76.42
2018-08-25T01:24:26.166Z,76.96
2018-08-25T01:25:26.148Z,77.19
2018-08-25T01:26:26.130Z,77.34
2018-08-25T01:27:26.165Z,77.06
2018-08-25T01:28:26.080Z,77.44
2018-08-25T01:29:26.051Z,77.53
2018-08-25T01:30:26.055Z,77.72
2018-08-25T01:31:26.001Z,78.01
2018-08-25T01:32:25.974Z,78.20
2018-08-25T01:33:25.964Z,78.11
2018-08-25T01:34:25.936Z,77.72
2018-08-25T01:35:25.913Z,77.92
2018-08-25T01:36:25.883Z,78.11
2018-08-25T01:37:25.857Z,78.39
2018-08-25T01:38:25.880Z,78.11
2018-08-25T01:39:25.832Z,77.92
2018-08-25T01:40:25.800Z,78.58
2018-08-25T01:41:25.763Z,78.49
2018-08-25T01:42:25.729Z,78.39
2018-08-25T01:43:25.713Z,78.87
2018-08-25T01:44:25.767Z,78.30
2018-08-25T01:45:25.664Z,78.68
2018-08-25T01:46:25.698Z,78.97
2018-08-25T01:47:25.632Z,78.78
2018-08-25T01:48:25.596Z,79.16
2018-08-25T01:49:25.570Z,78.87
2018-08-25T01:50:26.665Z,78.87
2018-08-25T01:51:25.512Z,79.06
2018-08-25T01:52:25.486Z,79.06
2018-08-25T01:53:25.531Z,79.73
2018-08-25T01:54:25.441Z,79.73
2018-08-25T01:55:32.304Z,79.54
2018-08-25T01:56:25.409Z,79.83
2018-08-25T01:57:25.462Z,79.54
2018-08-25T01:58:25.350Z,79.44
2018-08-25T01:59:25.373Z,80.02
2018-08-25T02:00:25.298Z,79.35
2018-08-25T02:01:25.392Z,79.83
2018-08-25T02:02:25.286Z,79.64
2018-08-25T02:03:26.320Z,79.64
2018-08-25T02:04:25.193Z,79.54
2018-08-25T02:05:25.183Z,79.93
2018-08-25T02:06:25.221Z,80.02
2018-08-25T02:07:25.134Z,80.50
2018-08-25T02:08:25.121Z,80.02
2018-08-25T02:09:25.092Z,80.21
2018-08-25T02:10:25.146Z,80.59
2018-08-25T02:11:25.030Z,80.02
2018-08-25T02:12:25.061Z,79.93
2018-08-25T02:13:24.979Z,80.02
2018-08-25T02:14:25.991Z,80.02
2018-08-25T02:15:24.923Z,79.54
2018-08-25T02:16:26.001Z,80.21
2018-08-25T02:17:24.878Z,80.21
2018-08-25T02:18:25.910Z,80.21
2018-08-25T02:19:24.830Z,79.54
2018-08-25T02:20:24.900Z,79.64
2018-08-25T02:21:24.778Z,79.64
2018-08-25T02:22:25.839Z,80.40
2018-08-25T02:23:24.745Z,79.64
2018-08-25T02:24:25.748Z,79.64
2018-08-25T02:25:24.690Z,79.83
2018-08-25T02:26:24.739Z,79.79
2018-08-25T02:27:24.634Z,79.44
2018-08-25T02:28:24.649Z,78.87
2018-08-25T02:29:24.584Z,78.74
2018-08-25T02:30:24.665Z,79.06
2018-08-25T02:31:24.539Z,79.06
2018-08-25T02:32:24.570Z,78.30
2018-08-25T02:33:24.490Z,78.30
2018-08-25T02:34:24.483Z,78.20
2018-08-25T02:35:24.463Z,78.30
2018-08-25T02:36:29.333Z,78.30
2018-08-25T02:37:24.436Z,78.30
2018-08-25T02:38:24.410Z,78.30
2018-08-25T02:39:24.342Z,78.01
2018-08-25T02:40:24.421Z,77.44
2018-08-25T02:41:24.297Z,77.34
2018-08-25T02:42:24.332Z,77.44
2018-08-25T02:43:24.244Z,77.15
2018-08-25T02:44:28.861Z,77.15
2018-08-25T02:45:24.193Z,76.86
2018-08-25T02:46:24.281Z,76.71
2018-08-25T02:47:24.144Z,76.71
2018-08-25T02:48:25.203Z,76.90
2018-08-25T02:49:24.106Z,76.23
2018-08-25T02:50:24.189Z,75.76
2018-08-25T02:51:24.046Z,75.95
2018-08-25T02:52:24.043Z,76.14
2018-08-25T02:53:24.018Z,76.14
2018-08-25T02:55:10.133Z,76.42
2018-08-25T02:56:10.077Z,76.42
2018-08-25T02:57:10.046Z,76.04
2018-08-25T02:58:10.016Z,75.95
2018-08-25T02:59:09.997Z,75.85
2018-08-25T03:00:09.972Z,76.71
2018-08-25T03:01:09.942Z,78.24
2018-08-25T03:02:09.920Z,78.24
2018-08-25T03:03:09.904Z,78.81
2018-08-25T03:04:09.869Z,79.29
2018-08-25T03:05:09.854Z,79.29
2018-08-25T03:06:09.829Z,79.39
2018-08-25T03:07:09.912Z,79.10
2018-08-25T03:08:09.778Z,79.10
2018-08-25T03:09:09.825Z,79.20
2018-08-25T03:10:09.726Z,79.29
2018-08-25T03:11:09.735Z,79.39
2018-08-25T03:12:09.680Z,80.35
2018-08-25T03:13:09.748Z,80.06
2018-08-25T03:14:09.626Z,79.87
2018-08-25T03:15:09.659Z,79.87
2018-08-25T03:16:09.579Z,80.02
2018-08-25T03:17:09.566Z,79.96
2018-08-25T03:18:09.548Z,80.54
2018-08-25T03:19:09.609Z,81.21
2018-08-25T03:20:09.481Z,82.35
2018-08-25T03:21:09.495Z,82.83
2018-08-25T03:22:09.429Z,83.94
2018-08-25T03:23:09.503Z,85.85
2018-08-25T03:24:09.374Z,87.38
2018-08-25T03:25:09.414Z,90.06
2018-08-25T03:26:09.352Z,89.20
2018-08-25T03:27:55.709Z,91.20
2018-08-25T03:28:55.649Z,91.49
2018-08-25T03:29:55.622Z,93.21
2018-08-25T03:30:55.639Z,94.79
2018-08-25T03:31:55.623Z,95.94
2018-08-25T03:32:55.548Z,97.47
2018-08-25T03:33:55.546Z,98.42
2018-08-25T03:34:55.528Z,99.99
2018-08-25T03:35:55.481Z,99.99
2018-08-25T03:36:55.452Z,99.99
2018-08-25T03:37:55.443Z,99.99
2018-08-25T03:38:55.417Z,99.99
2018-08-25T03:39:55.387Z,99.99
2018-08-25T03:40:55.366Z,99.99
2018-08-25T03:41:55.326Z,99.99
2018-08-25T03:42:55.300Z,99.99
2018-08-25T03:43:55.284Z,99.99
2018-08-25T03:44:55.258Z,99.99
2018-08-25T03:45:55.237Z,99.99
2018-08-25T03:47:41.210Z,99.99
2018-08-25T03:48:41.147Z,99.99
2018-08-25T03:49:41.224Z,99.99
2018-08-25T03:50:41.140Z,99.99
2018-08-25T03:51:41.076Z,99.99
2018-08-25T03:52:41.138Z,99.99
2018-08-25T03:53:41.020Z,99.99
2018-08-25T03:54:41.067Z,99.99
2018-08-25T03:55:40.992Z,99.99
2018-08-25T03:56:40.957Z,99.99
2018-08-25T03:57:40.938Z,99.99
2018-08-25T03:58:40.936Z,99.99
2018-08-25T03:59:41.914Z,99.99
2018-08-25T04:00:40.853Z,99.99
2018-08-25T04:01:40.949Z,99.99
2018-08-25T04:02:40.805Z,99.99
2018-08-25T04:03:40.825Z,99.99
2018-08-25T04:04:40.766Z,99.99
2018-08-25T04:05:40.815Z,99.99
2018-08-25T04:06:40.719Z,99.99
2018-08-25T04:07:41.754Z,99.99
2018-08-25T04:08:40.655Z,99.99
2018-08-25T04:09:40.655Z,99.99
2018-08-25T04:10:40.639Z,99.99
2018-08-25T04:11:41.693Z,99.99
2018-08-25T04:13:26.757Z,99.99
2018-08-25T04:14:26.578Z,99.99
2018-08-25T04:16:26.162Z,99.99
2018-08-25T04:17:25.983Z,99.99
2018-08-25T04:18:25.992Z,99.99
2018-08-25T04:19:25.949Z,99.99
2018-08-25T04:20:30.798Z,99.99
2018-08-25T04:21:25.880Z,99.99
2018-08-25T04:22:25.924Z,99.99
2018-08-25T04:23:25.841Z,99.99
2018-08-25T04:24:25.904Z,99.99
2018-08-25T04:25:25.805Z,99.99
2018-08-25T04:26:25.829Z,99.99
2018-08-25T04:27:25.766Z,99.99
2018-08-25T04:28:26.768Z,99.99
2018-08-25T04:30:12.209Z,99.99
2018-08-25T04:31:12.160Z,99.99
2018-08-25T04:33:06.364Z,99.99
2018-08-25T04:34:06.436Z,99.99
2018-08-25T04:36:00.146Z,99.99
2018-08-25T04:37:00.036Z,99.99
2018-08-25T04:38:56.198Z,99.99
2018-08-25T04:39:56.209Z,99.99
2018-08-25T04:40:56.119Z,99.99
2018-08-25T04:41:56.098Z,99.99
2018-08-25T04:42:56.092Z,99.99
2018-08-25T04:43:56.033Z,99.99
2018-08-25T04:44:56.019Z,99.99
2018-08-25T04:45:55.991Z,99.99
2018-08-25T04:46:55.998Z,99.99
2018-08-25T04:47:55.948Z,99.99
2018-08-25T04:48:55.907Z,99.99
2018-08-25T04:49:55.874Z,99.99
2018-08-25T04:50:55.910Z,99.99
2018-08-25T04:51:56.901Z,99.99
2018-08-25T04:54:20.499Z,99.99
2018-08-25T04:55:20.307Z,99.99
2018-08-25T04:56:21.295Z,99.99
2018-08-25T04:57:20.265Z,99.99
2018-08-25T04:58:20.311Z,99.99
2018-08-25T04:59:20.249Z,99.99
2018-08-25T05:00:20.230Z,99.99
2018-08-25T05:01:20.173Z,99.99
2018-08-25T05:02:20.222Z,99.99
2018-08-25T05:03:20.107Z,99.99
2018-08-25T05:04:20.117Z,99.99
2018-08-25T05:05:20.060Z,99.99
2018-08-25T05:06:20.126Z,99.99
2018-08-25T05:07:19.995Z,99.99
2018-08-25T05:08:21.057Z,99.99
2018-08-25T05:10:06.980Z,99.99
2018-08-25T05:11:06.964Z,99.99
2018-08-25T05:12:06.910Z,99.99
2018-08-25T05:13:06.829Z,99.99
2018-08-25T05:14:06.874Z,99.99
2018-08-25T05:15:06.782Z,99.99
2018-08-25T05:16:06.778Z,99.99
2018-08-25T05:17:06.739Z,99.99
2018-08-25T05:19:08.126Z,99.99
2018-08-25T05:20:08.176Z,99.99
2018-08-25T05:21:08.052Z,99.99
2018-08-25T05:22:09.095Z,99.99
2018-08-25T05:23:08.006Z,99.99
2018-08-25T05:24:08.063Z,99.99
2018-08-25T05:25:07.970Z,99.99
2018-08-25T05:26:09.053Z,99.99
2018-08-25T05:27:07.913Z,99.99
2018-08-25T05:28:07.883Z,99.99
2018-08-25T05:29:07.897Z,99.99
2018-08-25T05:30:07.822Z,99.99
2018-08-25T05:31:07.911Z,99.99
2018-08-25T05:32:07.830Z,99.99
2018-08-25T05:33:07.810Z,99.99
2018-08-25T05:34:07.726Z,99.99
2018-08-25T05:35:54.379Z,99.99
2018-08-25T05:36:54.347Z,99.99
2018-08-25T05:37:54.239Z,99.99
2018-08-25T05:38:54.217Z,99.99
2018-08-25T05:39:54.193Z,99.99
2018-08-25T05:40:55.328Z,99.99
2018-08-25T05:41:54.154Z,99.99
2018-08-25T05:42:54.123Z,99.99
2018-08-25T05:43:54.188Z,99.99
2018-08-25T05:44:54.068Z,99.99
2018-08-25T05:45:54.053Z,99.99
2018-08-25T05:49:03.350Z,99.99
2018-08-25T05:50:03.280Z,99.99
2018-08-25T05:51:03.255Z,99.99
2018-08-25T05:52:03.262Z,99.99
2018-08-25T05:53:03.197Z,99.99
2018-08-25T05:54:03.195Z,99.99
2018-08-25T05:55:07.978Z,99.99
2018-08-25T05:56:03.116Z,99.99
2018-08-25T05:57:03.165Z,99.99
2018-08-25T05:58:03.064Z,99.99
2018-08-25T05:59:53.548Z,99.99
2018-08-25T06:00:55.558Z,99.99
2018-08-25T06:01:53.487Z,99.99
2018-08-25T06:02:53.439Z,99.99
2018-08-25T06:03:54.588Z,99.99
2018-08-25T06:04:53.493Z,99.99
2018-08-25T06:05:55.506Z,99.99
2018-08-25T06:06:53.356Z,99.99
2018-08-25T06:07:53.425Z,99.99
2018-08-25T06:08:53.296Z,99.99
2018-08-25T06:09:53.326Z,99.99
2018-08-25T06:10:53.262Z,99.99
2018-08-25T06:11:53.220Z,99.99
2018-08-25T06:12:53.218Z,99.99
2018-08-25T06:13:53.184Z,99.99
2018-08-25T06:14:53.155Z,99.99
2018-08-25T06:15:53.117Z,99.99
2018-08-25T06:16:57.777Z,99.99
2018-08-25T06:17:53.076Z,99.99
2018-08-25T06:18:54.106Z,99.99
2018-08-25T06:19:53.034Z,99.99
2018-08-25T06:20:53.107Z,99.99
2018-08-25T06:22:38.933Z,99.99
2018-08-25T06:23:38.794Z,99.99
2018-08-25T06:24:38.818Z,99.99
2018-08-25T06:25:39.815Z,99.99
2018-08-25T06:26:38.761Z,99.99
2018-08-25T06:27:38.851Z,99.99
2018-08-25T06:28:38.710Z,99.99
2018-08-25T06:29:38.773Z,99.99
2018-08-25T06:30:38.629Z,99.99
2018-08-25T06:31:38.631Z,99.99
2018-08-25T06:32:38.584Z,99.99
2018-08-25T06:33:39.685Z,99.99
2018-08-25T06:35:30.707Z,99.99
2018-08-25T06:36:31.758Z,99.99
2018-08-25T06:38:34.366Z,99.99
2018-08-25T06:39:34.399Z,99.99
2018-08-25T06:40:34.311Z,99.99
2018-08-25T06:41:56.417Z,99.99
2018-08-25T06:42:34.311Z,99.99
2018-08-25T06:43:47.098Z,99.99
2018-08-25T06:44:34.239Z,99.99
2018-08-25T06:45:35.368Z,99.99
2018-08-25T06:46:34.147Z,99.99
2018-08-25T06:47:41.091Z,99.99
2018-08-25T06:48:34.456Z,99.99
2018-08-25T06:49:56.172Z,99.99
2018-08-25T06:51:34.014Z,99.99
2018-08-25T06:52:34.141Z,99.99
2018-08-25T06:53:33.972Z,99.99
2018-08-25T06:54:33.946Z,99.99
2018-08-25T06:55:33.885Z,99.99
2018-08-25T06:56:33.958Z,99.99
2018-08-25T06:57:33.833Z,99.99
2018-08-25T06:58:33.823Z,99.99
2018-08-25T06:59:33.928Z,99.99
2018-08-25T07:00:33.782Z,99.99
2018-08-25T07:01:33.798Z,99.99
2018-08-25T07:02:33.705Z,99.99
2018-08-25T07:03:33.699Z,99.99
2018-08-25T07:04:33.667Z,99.99
2018-08-25T07:05:34.731Z,99.99
2018-08-25T07:06:33.626Z,99.99
2018-08-25T07:07:33.623Z,99.99
2018-08-25T07:08:33.573Z,99.99
2018-08-25T07:09:33.648Z,99.99
2018-08-25T07:10:33.514Z,99.99
2018-08-25T07:11:33.485Z,99.99
2018-08-25T07:12:33.457Z,99.99
2018-08-25T07:13:33.459Z,99.99
2018-08-25T07:14:33.408Z,99.99
2018-08-25T07:15:33.388Z,99.99
2018-08-25T07:16:33.379Z,99.99
2018-08-25T07:17:33.368Z,99.99
2018-08-25T07:18:33.310Z,99.99
2018-08-25T07:19:33.307Z,99.99
2018-08-25T07:20:33.261Z,99.99
2018-08-25T07:21:33.250Z,99.99
2018-08-25T07:22:33.332Z,99.99
2018-08-25T07:23:33.205Z,99.99
2018-08-25T07:24:33.235Z,99.99
2018-08-25T07:25:33.146Z,99.99
2018-08-25T07:26:33.129Z,99.99
2018-08-25T07:27:33.161Z,99.99
2018-08-25T07:28:33.075Z,99.99
2018-08-25T07:29:33.056Z,99.99
2018-08-25T07:31:19.300Z,99.99
2018-08-25T07:32:19.251Z,99.99
2018-08-25T07:33:19.201Z,99.99
2018-08-25T07:34:19.189Z,99.99
2018-08-25T07:35:19.168Z,99.99
2018-08-25T07:36:19.126Z,99.99
2018-08-25T07:37:19.114Z,99.99
2018-08-25T07:38:19.104Z,99.99
2018-08-25T07:39:19.057Z,99.99
2018-08-25T07:40:19.033Z,99.99
2018-08-25T07:41:19.212Z,99.99
2018-08-25T07:42:18.994Z,99.99
2018-08-25T07:43:18.969Z,99.99
2018-08-25T07:44:18.941Z,99.99
2018-08-25T07:45:18.990Z,99.99
2018-08-25T07:46:18.900Z,99.99
2018-08-25T07:47:19.023Z,99.99
2018-08-25T07:48:19.929Z,99.99
2018-08-25T07:49:18.840Z,99.99
2018-08-25T07:50:19.089Z,99.99
2018-08-25T07:51:18.776Z,99.99
2018-08-25T07:52:18.751Z,99.99
2018-08-25T07:53:18.744Z,99.90
2018-08-25T07:54:18.692Z,98.28
2018-08-25T07:55:18.711Z,97.80
2018-08-25T07:56:18.711Z,97.52
2018-08-25T07:57:18.626Z,98.95
2018-08-25T07:58:18.628Z,99.04
2018-08-25T07:59:18.889Z,99.71
2018-08-25T08:01:05.007Z,99.62
2018-08-25T08:02:04.961Z,99.33
2018-08-25T08:03:04.930Z,99.33
2018-08-25T08:04:04.937Z,99.14
2018-08-25T08:05:04.874Z,99.24
2018-08-25T08:06:04.852Z,99.62
2018-08-25T08:07:04.823Z,99.99
2018-08-25T08:08:04.815Z,99.71
2018-08-25T08:09:04.866Z,98.75
2018-08-25T08:10:04.788Z,98.09
2018-08-25T08:11:04.780Z,97.23
2018-08-25T08:12:04.737Z,97.61
2018-08-25T08:13:04.795Z,97.90
2018-08-25T08:14:04.658Z,98.47
2018-08-25T08:15:04.628Z,96.99
2018-08-25T08:16:04.609Z,95.98
2018-08-25T08:17:04.599Z,95.51
2018-08-25T08:18:04.630Z,95.75
2018-08-25T08:19:04.528Z,96.32
2018-08-25T08:20:04.651Z,96.32
2018-08-25T08:21:04.488Z,94.50
2018-08-25T08:22:04.474Z,94.98
2018-08-25T08:23:50.317Z,94.21
2018-08-25T08:24:50.337Z,93.45
2018-08-25T08:25:50.276Z,93.64
2018-08-25T08:26:50.233Z,94.02
2018-08-25T08:27:50.185Z,94.50
2018-08-25T08:28:50.162Z,94.60
2018-08-25T08:29:50.148Z,95.17
2018-08-25T08:30:50.248Z,93.26
2018-08-25T08:31:50.087Z,92.40
2018-08-25T08:32:50.089Z,91.44
2018-08-25T08:33:50.087Z,92.49
2018-08-25T08:34:50.020Z,93.84
2018-08-25T08:35:50.092Z,94.70
2018-08-25T08:36:49.982Z,96.32
2018-08-25T08:37:50.075Z,97.71
2018-08-25T08:38:49.929Z,99.62
2018-08-25T08:39:49.921Z,99.99
2018-08-25T08:40:49.935Z,99.99
2018-08-25T08:41:49.872Z,99.99
2018-08-25T08:42:49.943Z,99.99
2018-08-25T08:43:49.810Z,99.99
2018-08-25T08:44:49.869Z,99.99
2018-08-25T08:45:49.821Z,99.99
2018-08-25T08:46:49.787Z,99.99
2018-08-25T08:47:49.788Z,99.99
2018-08-25T08:49:46.456Z,99.99
2018-08-25T08:50:37.483Z,99.99
2018-08-25T08:51:37.632Z,99.99
2018-08-25T08:52:37.401Z,99.99
2018-08-25T08:53:37.326Z,99.99
2018-08-25T08:54:38.439Z,99.99
2018-08-25T08:55:37.277Z,99.99
2018-08-25T08:56:38.395Z,99.99
2018-08-25T08:57:37.234Z,99.99
2018-08-25T08:58:58.223Z,99.99
2018-08-25T08:59:37.193Z,99.99
2018-08-25T09:00:39.198Z,99.99
2018-08-25T09:01:37.234Z,99.99
2018-08-25T09:03:25.909Z,99.99
2018-08-25T09:04:25.853Z,99.99
2018-08-25T09:05:25.801Z,99.99
2018-08-25T09:06:25.806Z,99.99
2018-08-25T09:07:25.748Z,98.09
2018-08-25T09:08:25.809Z,97.90
2018-08-25T09:09:25.696Z,99.04
2018-08-25T09:10:25.748Z,99.99
2018-08-25T09:11:25.743Z,98.47
2018-08-25T09:12:25.636Z,98.95
2018-08-25T09:13:25.602Z,96.08
2018-08-25T09:14:25.654Z,96.66
2018-08-25T09:15:25.558Z,97.75
2018-08-25T09:16:25.528Z,96.03
2018-08-25T09:17:25.511Z,95.94
2018-08-25T09:18:25.475Z,94.21
2018-08-25T09:19:25.515Z,93.64
2018-08-25T09:20:26.525Z,93.31
2018-08-25T09:21:25.400Z,94.74
2018-08-25T09:22:25.378Z,94.55
2018-08-25T09:23:25.362Z,94.55
2018-08-25T09:24:25.345Z,95.41
2018-08-25T09:25:25.303Z,96.37
2018-08-25T09:26:25.275Z,95.98
2018-08-25T09:27:25.309Z,98.52
2018-08-25T09:28:25.225Z,96.42
2018-08-25T09:29:25.203Z,96.13
2018-08-25T09:30:30.155Z,96.22
2018-08-25T09:31:25.148Z,93.50
2018-08-25T09:32:25.161Z,90.34
2018-08-25T09:33:25.103Z,88.52
2018-08-25T09:34:25.090Z,91.49
2018-08-25T09:35:25.073Z,91.49
2018-08-25T09:36:25.155Z,90.39
2018-08-25T09:37:25.110Z,89.81
2018-08-25T09:38:24.985Z,90.63
2018-08-25T09:39:29.712Z,90.58
2018-08-25T09:40:24.928Z,93.12
2018-08-25T09:41:24.911Z,93.50
2018-08-25T09:42:24.910Z,93.16
2018-08-25T09:43:24.870Z,92.02
2018-08-25T09:44:25.904Z,92.69
2018-08-25T09:45:24.802Z,90.77
2018-08-25T09:46:24.855Z,90.58
2018-08-25T09:47:24.749Z,90.63
2018-08-25T09:48:26.817Z,90.63
2018-08-25T09:49:24.710Z,89.48
2018-08-25T09:50:24.768Z,88.43
2018-08-25T09:51:24.666Z,89.67
2018-08-25T09:52:24.699Z,89.04
2018-08-25T09:53:24.632Z,88.13
2018-08-25T09:54:24.676Z,87.27
2018-08-25T09:55:24.559Z,86.41
2018-08-25T09:56:24.524Z,87.27
2018-08-25T09:57:24.506Z,88.04
2018-08-25T09:58:24.479Z,85.02
2018-08-25T09:59:24.466Z,84.22
2018-08-25T10:00:24.464Z,84.31
2018-08-25T10:01:24.417Z,85.08
2018-08-25T10:02:24.384Z,87.03
2018-08-25T10:03:24.357Z,84.55
2018-08-25T10:04:24.334Z,85.21
2018-08-25T10:05:24.402Z,86.08
2018-08-25T10:06:24.281Z,84.55
2018-08-25T10:07:25.376Z,83.78
2018-08-25T10:08:24.237Z,82.82
2018-08-25T10:09:24.214Z,81.86
2018-08-25T10:10:24.191Z,79.89
2018-08-25T10:11:24.162Z,79.85
2018-08-25T10:12:24.190Z,80.33
2018-08-25T10:13:24.106Z,80.71
2018-08-25T10:14:24.096Z,79.95
2018-08-25T10:15:24.112Z,78.99
2018-08-25T10:16:24.088Z,79.47
2018-08-25T10:17:24.027Z,78.51
2018-08-25T10:18:24.034Z,79.18
2018-08-25T10:19:23.961Z,79.70
2018-08-25T10:20:24.030Z,80.27
2018-08-25T10:21:23.916Z,79.22
2018-08-25T10:22:23.966Z,79.26
2018-08-25T10:23:23.929Z,78.88
2018-08-25T10:24:23.860Z,78.59
2018-08-25T10:25:23.805Z,77.48
2018-08-25T10:26:23.883Z,76.67
2018-08-25T10:27:23.781Z,76.86
2018-08-25T10:28:23.796Z,76.92
2018-08-25T10:30:09.563Z,80.94
2018-08-25T10:31:09.491Z,81.52
2018-08-25T10:32:09.586Z,80.66
2018-08-25T10:33:09.448Z,81.71
2018-08-25T10:34:09.419Z,80.76
2018-08-25T10:35:09.390Z,79.64
2018-08-25T10:36:09.370Z,77.92
2018-08-25T10:37:09.349Z,78.11
2018-08-25T10:38:09.321Z,77.53
2018-08-25T10:39:09.291Z,76.92
2018-08-25T10:40:09.268Z,77.11
2018-08-25T10:41:09.264Z,77.53
2018-08-25T10:42:09.237Z,76.67
2018-08-25T10:43:09.199Z,74.95
2018-08-25T10:44:09.249Z,74.27
2018-08-25T10:45:09.144Z,75.62
2018-08-25T10:46:09.117Z,75.62
2018-08-25T10:47:09.189Z,76.29
2018-08-25T10:48:09.195Z,75.65
2018-08-25T10:49:09.188Z,73.93
2018-08-25T10:50:09.050Z,73.30
2018-08-25T10:51:09.100Z,72.43
2018-08-25T10:52:08.975Z,72.05
2018-08-25T10:53:09.117Z,71.95
2018-08-25T10:54:08.979Z,73.26
2018-08-25T10:55:09.015Z,72.30
2018-08-25T10:56:08.883Z,70.86
2018-08-25T10:57:08.848Z,71.05
2018-08-25T10:58:08.930Z,72.30
2018-08-25T10:59:08.804Z,73.55
2018-08-25T11:00:09.052Z,71.92
2018-08-25T11:01:08.863Z,71.44
2018-08-25T11:02:08.900Z,71.50
2018-08-25T11:03:08.709Z,72.17
2018-08-25T11:04:08.774Z,73.22
2018-08-25T11:05:08.655Z,72.39
2018-08-25T11:06:08.782Z,72.27
2018-08-25T11:07:08.607Z,73.07
2018-08-25T11:08:09.681Z,73.16
2018-08-25T11:09:08.558Z,72.14
2018-08-25T11:10:08.575Z,69.78
2018-08-25T11:11:08.505Z,68.15
2018-08-25T11:12:08.599Z,67.09
2018-08-25T11:13:08.683Z,66.36
2018-08-25T11:14:08.430Z,65.49
2018-08-25T11:15:08.509Z,65.20
2018-08-25T11:16:08.372Z,62.81
2018-08-25T11:17:08.426Z,64.02
2018-08-25T11:18:08.345Z,63.79
2018-08-25T11:19:08.327Z,64.56
2018-08-25T11:20:08.276Z,65.62
2018-08-25T11:21:08.345Z,66.77
2018-08-25T11:22:08.245Z,66.39
2018-08-25T11:23:08.269Z,66.74
2018-08-25T11:24:08.185Z,66.67
2018-08-25T11:25:08.166Z,66.67
2018-08-25T11:26:08.128Z,67.16
2018-08-25T11:27:08.129Z,67.47
2018-08-25T11:28:08.081Z,68.57
2018-08-25T11:29:54.370Z,64.50
2018-08-25T11:30:54.306Z,62.29
2018-08-25T11:31:54.310Z,61.43
2018-08-25T11:32:54.262Z,61.71
2018-08-25T11:33:54.247Z,63.25
2018-08-25T11:34:54.213Z,62.87
2018-08-25T11:35:54.184Z,62.38
2018-08-25T11:36:54.233Z,63.18
2018-08-25T11:37:54.343Z,63.76
2018-08-25T11:38:54.121Z,61.58
2018-08-25T11:39:54.090Z,59.92
2018-08-25T11:40:54.065Z,59.08
2018-08-25T11:41:54.043Z,59.24
2018-08-25T11:42:54.020Z,60.21
2018-08-25T11:43:54.023Z,60.21
2018-08-25T11:44:53.967Z,61.07
2018-08-25T11:45:53.973Z,60.39
2018-08-25T11:46:53.952Z,59.89
2018-08-25T11:47:53.897Z,60.27
2018-08-25T11:48:53.870Z,61.20
2018-08-25T11:49:53.854Z,62.32
2018-08-25T11:50:53.824Z,61.55
2018-08-25T11:51:53.801Z,62.87
2018-08-25T11:52:53.778Z,65.17
2018-08-25T11:53:53.837Z,65.56
2018-08-25T11:54:53.732Z,65.94
2018-08-25T11:55:53.699Z,66.26
2018-08-25T11:56:53.682Z,65.59
2018-08-25T11:57:53.650Z,66.46
2018-08-25T11:58:53.637Z,67.03
2018-08-25T11:59:53.714Z,67.80
2018-08-25T12:00:53.575Z,68.57
2018-08-25T12:01:53.619Z,67.61
2018-08-25T12:02:53.524Z,68.41
2018-08-25T12:03:53.506Z,65.91
2018-08-25T12:04:53.483Z,65.46
2018-08-25T12:05:53.459Z,62.77
2018-08-25T12:06:53.447Z,63.45
2018-08-25T12:07:53.412Z,64.50
2018-08-25T12:08:53.463Z,63.45
2018-08-25T12:09:53.361Z,62.51
2018-08-25T12:10:53.347Z,62.41
2018-08-25T12:11:53.316Z,62.23
2018-08-25T12:12:53.381Z,62.68
2018-08-25T12:13:53.271Z,63.09
2018-08-25T12:14:53.241Z,62.48
2018-08-25T12:15:53.217Z,62.38
2018-08-25T12:16:53.212Z,62.80
2018-08-25T12:17:53.165Z,61.65
2018-08-25T12:18:53.139Z,61.61
2018-08-25T12:19:53.124Z,61.71
2018-08-25T12:20:53.082Z,64.28
2018-08-25T12:21:53.074Z,63.89
2018-08-25T12:22:53.041Z,64.47
2018-08-25T12:23:53.017Z,64.37
2018-08-25T12:24:53.028Z,65.11
2018-08-25T12:25:52.966Z,65.20
2018-08-25T12:27:39.409Z,65.30
2018-08-25T12:28:39.370Z,65.75
2018-08-25T12:29:39.314Z,66.13
2018-08-25T12:30:39.315Z,67.29
2018-08-25T12:31:39.273Z,67.73
2018-08-25T12:32:39.249Z,68.05
2018-08-25T12:33:39.315Z,68.24
2018-08-25T12:34:39.197Z,66.33
2018-08-25T12:35:39.182Z,66.16
2018-08-25T12:36:39.154Z,65.20
2018-08-25T12:37:39.124Z,64.09
2018-08-25T12:38:39.124Z,62.93
2018-08-25T12:39:39.146Z,61.68
2018-08-25T12:40:39.071Z,60.66
2018-08-25T12:41:39.034Z,59.89
2018-08-25T12:42:39.014Z,60.27
2018-08-25T12:43:39.038Z,60.08
2018-08-25T12:44:38.981Z,60.17
2018-08-25T12:45:38.937Z,60.46
2018-08-25T12:46:38.948Z,60.85
2018-08-25T12:47:38.934Z,60.85
2018-08-25T12:48:38.906Z,61.52
2018-08-25T12:49:38.844Z,61.33
2018-08-25T12:50:38.839Z,60.37
2018-08-25T12:51:38.852Z,61.23
2018-08-25T12:52:38.769Z,61.61
2018-08-25T12:53:38.748Z,62.35
2018-08-25T12:54:38.722Z,63.12
2018-08-25T12:55:38.702Z,63.06
2018-08-25T12:56:38.670Z,63.54
2018-08-25T12:57:38.659Z,62.93
2018-08-25T12:58:38.662Z,64.22
2018-08-25T12:59:38.604Z,64.22
2018-08-25T13:00:38.586Z,64.12
2018-08-25T13:01:38.610Z,64.15
2018-08-25T13:02:38.529Z,63.28
2018-08-25T13:03:38.525Z,62.96
2018-08-25T13:04:38.478Z,63.76
2018-08-25T13:05:38.456Z,61.65
2018-08-25T13:06:38.525Z,60.78
2018-08-25T13:07:38.509Z,60.78
2018-08-25T13:08:38.395Z,60.33
2018-08-25T13:10:24.288Z,60.62
2018-08-25T13:11:24.222Z,59.94
2018-08-25T13:12:24.210Z,60.36
2018-08-25T13:13:24.206Z,59.69
2018-08-25T13:14:24.153Z,59.69
2018-08-25T13:15:24.131Z,58.82
2018-08-25T13:16:24.115Z,59.33
2018-08-25T13:17:24.082Z,58.92
2018-08-25T13:18:25.164Z,59.59
2018-08-25T13:19:24.057Z,58.95